sensor_id;sensor_type;location;lat;lon;timestamp;P1;durP1;ratioP1;P2;durP2;ratioP2
52508;SDS011;38420;53.150;6.370;2022-09-23T00:01:51;20.33;;;15.52;;
52508;SDS011;38420;53.150;6.370;2022-09-23T00:04:18;16.75;;;14.70;;
52508;SDS011;38420;53.150;6.370;2022-09-23T00:06:43;19.25;;;14.57;;
52508;SDS011;38420;53.150;6.370;2022-09-23T00:09:09;17.60;;;15.65;;
52508;SDS011;38420;53.150;6.370;2022-09-23T00:11:35;19.67;;;15.60;;
52508;SDS011;38420;53.150;6.370;2022-09-23T00:14:01;17.73;;;15.55;;
52508;SDS011;38420;53.150;6.370;2022-09-23T00:16:28;21.55;;;15.90;;
52508;SDS011;38420;53.150;6.370;2022-09-23T00:18:58;19.70;;;15.60;;
52508;SDS011;38420;53.150;6.370;2022-09-23T00:21:25;16.73;;;14.93;;
52508;SDS011;38420;53.150;6.370;2022-09-23T00:23:51;18.27;;;16.23;;
52508;SDS011;38420;53.150;6.370;2022-09-23T00:26:18;22.38;;;17.02;;
52508;SDS011;38420;53.150;6.370;2022-09-23T00:28:44;20.20;;;17.08;;
52508;SDS011;38420;53.150;6.370;2022-09-23T00:31:13;18.48;;;16.35;;
52508;SDS011;38420;53.150;6.370;2022-09-23T00:33:40;18.25;;;15.05;;
52508;SDS011;38420;53.150;6.370;2022-09-23T00:36:07;20.08;;;16.30;;
52508;SDS011;38420;53.150;6.370;2022-09-23T00:38:35;20.95;;;16.48;;
52508;SDS011;38420;53.150;6.370;2022-09-23T00:41:02;19.20;;;16.02;;
52508;SDS011;38420;53.150;6.370;2022-09-23T00:46:24;21.88;;;16.50;;
52508;SDS011;38420;53.150;6.370;2022-09-23T00:49:10;18.35;;;16.35;;
52508;SDS011;38420;53.150;6.370;2022-09-23T00:51:41;19.85;;;16.50;;
52508;SDS011;38420;53.150;6.370;2022-09-23T00:54:16;24.55;;;16.48;;
52508;SDS011;38420;53.150;6.370;2022-09-23T00:56:42;23.00;;;16.05;;
52508;SDS011;38420;53.150;6.370;2022-09-23T00:59:08;20.52;;;16.30;;
52508;SDS011;38420;53.150;6.370;2022-09-23T01:01:35;21.77;;;17.17;;
52508;SDS011;38420;53.150;6.370;2022-09-23T01:04:02;18.23;;;15.48;;
52508;SDS011;38420;53.150;6.370;2022-09-23T01:06:28;20.80;;;16.38;;
52508;SDS011;38420;53.150;6.370;2022-09-23T01:08:54;20.90;;;17.98;;
52508;SDS011;38420;53.150;6.370;2022-09-23T01:11:29;22.25;;;16.88;;
52508;SDS011;38420;53.150;6.370;2022-09-23T01:25:08;18.30;;;16.42;;
52508;SDS011;38420;53.150;6.370;2022-09-23T01:28:06;20.77;;;17.85;;
52508;SDS011;38420;53.150;6.370;2022-09-23T01:33:36;20.25;;;16.85;;
52508;SDS011;38420;53.150;6.370;2022-09-23T01:39:05;20.23;;;17.55;;
52508;SDS011;38420;53.150;6.370;2022-09-23T01:44:21;25.58;;;17.95;;
52508;SDS011;38420;53.150;6.370;2022-09-23T01:46:53;22.65;;;16.85;;
52508;SDS011;38420;53.150;6.370;2022-09-23T01:55:01;21.95;;;16.98;;
52508;SDS011;38420;53.150;6.370;2022-09-23T02:00:03;22.25;;;16.17;;
52508;SDS011;38420;53.150;6.370;2022-09-23T02:02:35;22.10;;;17.15;;
52508;SDS011;38420;53.150;6.370;2022-09-23T02:05:10;20.08;;;15.52;;
52508;SDS011;38420;53.150;6.370;2022-09-23T02:07:42;19.67;;;15.82;;
52508;SDS011;38420;53.150;6.370;2022-09-23T02:10:18;19.58;;;16.17;;
52508;SDS011;38420;53.150;6.370;2022-09-23T02:12:53;20.58;;;17.08;;
52508;SDS011;38420;53.150;6.370;2022-09-23T02:15:24;22.88;;;16.85;;
52508;SDS011;38420;53.150;6.370;2022-09-23T02:18:00;19.50;;;16.30;;
52508;SDS011;38420;53.150;6.370;2022-09-23T02:20:33;20.15;;;16.40;;
52508;SDS011;38420;53.150;6.370;2022-09-23T02:23:07;19.55;;;16.23;;
52508;SDS011;38420;53.150;6.370;2022-09-23T02:25:42;19.92;;;16.23;;
52508;SDS011;38420;53.150;6.370;2022-09-23T02:28:17;22.40;;;16.20;;
52508;SDS011;38420;53.150;6.370;2022-09-23T02:31:06;20.42;;;15.52;;
52508;SDS011;38420;53.150;6.370;2022-09-23T02:36:44;19.15;;;15.63;;
52508;SDS011;38420;53.150;6.370;2022-09-23T02:39:11;21.45;;;16.23;;
52508;SDS011;38420;53.150;6.370;2022-09-23T02:41:45;20.48;;;16.50;;
52508;SDS011;38420;53.150;6.370;2022-09-23T02:44:20;21.45;;;16.42;;
52508;SDS011;38420;53.150;6.370;2022-09-23T02:46:48;21.08;;;16.45;;
52508;SDS011;38420;53.150;6.370;2022-09-23T02:54:15;21.13;;;17.58;;
52508;SDS011;38420;53.150;6.370;2022-09-23T02:56:42;21.23;;;17.27;;
52508;SDS011;38420;53.150;6.370;2022-09-23T02:59:08;25.65;;;18.58;;
52508;SDS011;38420;53.150;6.370;2022-09-23T03:01:47;22.90;;;17.90;;
52508;SDS011;38420;53.150;6.370;2022-09-23T03:07:17;25.55;;;18.42;;
52508;SDS011;38420;53.150;6.370;2022-09-23T03:13:07;25.35;;;18.20;;
52508;SDS011;38420;53.150;6.370;2022-09-23T03:18:36;24.98;;;19.63;;
52508;SDS011;38420;53.150;6.370;2022-09-23T03:24:13;25.17;;;19.42;;
52508;SDS011;38420;53.150;6.370;2022-09-23T03:26:42;24.80;;;19.75;;
52508;SDS011;38420;53.150;6.370;2022-09-23T03:29:09;24.60;;;19.63;;
52508;SDS011;38420;53.150;6.370;2022-09-23T03:31:36;26.50;;;19.80;;
52508;SDS011;38420;53.150;6.370;2022-09-23T03:34:13;23.38;;;19.00;;
52508;SDS011;38420;53.150;6.370;2022-09-23T03:39:39;28.02;;;20.73;;
52508;SDS011;38420;53.150;6.370;2022-09-23T03:42:13;28.85;;;22.00;;
52508;SDS011;38420;53.150;6.370;2022-09-23T03:44:43;24.73;;;19.73;;
52508;SDS011;38420;53.150;6.370;2022-09-23T03:47:13;24.33;;;20.27;;
52508;SDS011;38420;53.150;6.370;2022-09-23T03:49:41;21.63;;;17.92;;
52508;SDS011;38420;53.150;6.370;2022-09-23T03:52:09;25.50;;;19.98;;
52508;SDS011;38420;53.150;6.370;2022-09-23T03:54:35;26.75;;;19.80;;
52508;SDS011;38420;53.150;6.370;2022-09-23T03:57:01;23.70;;;18.67;;
52508;SDS011;38420;53.150;6.370;2022-09-23T03:59:27;25.67;;;19.95;;
52508;SDS011;38420;53.150;6.370;2022-09-23T04:01:56;28.77;;;21.15;;
52508;SDS011;38420;53.150;6.370;2022-09-23T04:04:23;26.02;;;19.58;;
52508;SDS011;38420;53.150;6.370;2022-09-23T04:06:55;25.45;;;19.42;;
52508;SDS011;38420;53.150;6.370;2022-09-23T04:09:21;25.60;;;20.33;;
52508;SDS011;38420;53.150;6.370;2022-09-23T04:11:48;24.75;;;19.90;;
52508;SDS011;38420;53.150;6.370;2022-09-23T04:14:15;25.00;;;19.02;;
52508;SDS011;38420;53.150;6.370;2022-09-23T04:16:41;24.42;;;21.58;;
52508;SDS011;38420;53.150;6.370;2022-09-23T04:19:08;28.35;;;19.98;;
52508;SDS011;38420;53.150;6.370;2022-09-23T04:21:34;24.55;;;19.38;;
52508;SDS011;38420;53.150;6.370;2022-09-23T04:24:00;23.65;;;20.35;;
52508;SDS011;38420;53.150;6.370;2022-09-23T04:26:26;27.33;;;20.65;;
52508;SDS011;38420;53.150;6.370;2022-09-23T04:28:52;25.52;;;20.23;;
52508;SDS011;38420;53.150;6.370;2022-09-23T04:31:18;26.38;;;20.20;;
52508;SDS011;38420;53.150;6.370;2022-09-23T04:33:44;25.15;;;20.70;;
52508;SDS011;38420;53.150;6.370;2022-09-23T04:36:09;25.60;;;20.92;;
52508;SDS011;38420;53.150;6.370;2022-09-23T04:38:35;23.48;;;20.42;;
52508;SDS011;38420;53.150;6.370;2022-09-23T04:41:01;25.90;;;20.48;;
52508;SDS011;38420;53.150;6.370;2022-09-23T04:43:26;26.90;;;20.23;;
52508;SDS011;38420;53.150;6.370;2022-09-23T04:45:58;26.38;;;21.55;;
52508;SDS011;38420;53.150;6.370;2022-09-23T04:48:25;23.17;;;19.65;;
52508;SDS011;38420;53.150;6.370;2022-09-23T04:50:50;28.35;;;21.27;;
52508;SDS011;38420;53.150;6.370;2022-09-23T04:53:16;24.85;;;20.55;;
52508;SDS011;38420;53.150;6.370;2022-09-23T04:55:44;26.60;;;21.05;;
52508;SDS011;38420;53.150;6.370;2022-09-23T04:58:09;24.05;;;20.23;;
52508;SDS011;38420;53.150;6.370;2022-09-23T05:00:35;24.45;;;21.70;;
52508;SDS011;38420;53.150;6.370;2022-09-23T05:03:01;22.73;;;19.83;;
52508;SDS011;38420;53.150;6.370;2022-09-23T05:05:27;26.33;;;21.77;;
52508;SDS011;38420;53.150;6.370;2022-09-23T05:07:54;25.55;;;19.75;;
52508;SDS011;38420;53.150;6.370;2022-09-23T05:10:20;26.38;;;20.60;;
52508;SDS011;38420;53.150;6.370;2022-09-23T05:12:46;26.10;;;20.83;;
52508;SDS011;38420;53.150;6.370;2022-09-23T05:15:12;25.98;;;20.58;;
52508;SDS011;38420;53.150;6.370;2022-09-23T05:17:39;26.92;;;21.05;;
52508;SDS011;38420;53.150;6.370;2022-09-23T05:20:04;27.08;;;21.30;;
52508;SDS011;38420;53.150;6.370;2022-09-23T05:22:30;30.60;;;20.70;;
52508;SDS011;38420;53.150;6.370;2022-09-23T05:24:56;25.75;;;20.90;;
52508;SDS011;38420;53.150;6.370;2022-09-23T05:27:23;28.65;;;21.65;;
52508;SDS011;38420;53.150;6.370;2022-09-23T05:29:49;25.20;;;20.95;;
52508;SDS011;38420;53.150;6.370;2022-09-23T05:32:17;26.40;;;20.80;;
52508;SDS011;38420;53.150;6.370;2022-09-23T05:34:43;26.70;;;21.58;;
52508;SDS011;38420;53.150;6.370;2022-09-23T05:37:08;27.10;;;21.23;;
52508;SDS011;38420;53.150;6.370;2022-09-23T05:39:34;34.63;;;21.13;;
52508;SDS011;38420;53.150;6.370;2022-09-23T05:42:00;27.85;;;21.30;;
52508;SDS011;38420;53.150;6.370;2022-09-23T05:44:26;23.90;;;19.67;;
52508;SDS011;38420;53.150;6.370;2022-09-23T05:46:51;31.88;;;21.58;;
52508;SDS011;38420;53.150;6.370;2022-09-23T05:49:17;27.90;;;21.75;;
52508;SDS011;38420;53.150;6.370;2022-09-23T05:51:42;23.73;;;21.08;;
52508;SDS011;38420;53.150;6.370;2022-09-23T05:54:08;26.50;;;21.02;;
52508;SDS011;38420;53.150;6.370;2022-09-23T05:56:34;27.33;;;21.10;;
52508;SDS011;38420;53.150;6.370;2022-09-23T05:59:01;26.13;;;20.35;;
52508;SDS011;38420;53.150;6.370;2022-09-23T06:01:32;26.20;;;21.23;;
52508;SDS011;38420;53.150;6.370;2022-09-23T06:03:59;27.42;;;21.50;;
52508;SDS011;38420;53.150;6.370;2022-09-23T06:08:52;23.17;;;20.48;;
52508;SDS011;38420;53.150;6.370;2022-09-23T06:11:18;24.08;;;20.90;;
52508;SDS011;38420;53.150;6.370;2022-09-23T06:13:45;23.63;;;20.63;;
52508;SDS011;38420;53.150;6.370;2022-09-23T06:16:12;25.67;;;20.80;;
52508;SDS011;38420;53.150;6.370;2022-09-23T06:18:42;25.75;;;20.90;;
52508;SDS011;38420;53.150;6.370;2022-09-23T06:21:10;23.83;;;20.00;;
52508;SDS011;38420;53.150;6.370;2022-09-23T06:23:40;27.70;;;20.95;;
52508;SDS011;38420;53.150;6.370;2022-09-23T06:26:07;28.15;;;22.67;;
52508;SDS011;38420;53.150;6.370;2022-09-23T06:28:35;26.73;;;20.85;;
52508;SDS011;38420;53.150;6.370;2022-09-23T06:31:03;25.65;;;21.02;;
52508;SDS011;38420;53.150;6.370;2022-09-23T06:33:32;25.35;;;20.75;;
52508;SDS011;38420;53.150;6.370;2022-09-23T06:35:59;23.38;;;20.63;;
52508;SDS011;38420;53.150;6.370;2022-09-23T06:38:27;27.00;;;20.38;;
52508;SDS011;38420;53.150;6.370;2022-09-23T06:40:54;23.33;;;19.73;;
52508;SDS011;38420;53.150;6.370;2022-09-23T06:43:22;25.58;;;19.85;;
52508;SDS011;38420;53.150;6.370;2022-09-23T06:45:56;23.00;;;19.42;;
52508;SDS011;38420;53.150;6.370;2022-09-23T06:48:26;24.58;;;19.25;;
52508;SDS011;38420;53.150;6.370;2022-09-23T06:50:52;22.13;;;18.10;;
52508;SDS011;38420;53.150;6.370;2022-09-23T06:53:19;25.88;;;19.35;;
52508;SDS011;38420;53.150;6.370;2022-09-23T06:55:56;20.90;;;18.13;;
52508;SDS011;38420;53.150;6.370;2022-09-23T06:58:26;23.08;;;19.25;;
52508;SDS011;38420;53.150;6.370;2022-09-23T07:00:53;24.35;;;18.45;;
52508;SDS011;38420;53.150;6.370;2022-09-23T07:03:24;24.55;;;19.20;;
52508;SDS011;38420;53.150;6.370;2022-09-23T07:05:53;23.10;;;19.63;;
52508;SDS011;38420;53.150;6.370;2022-09-23T07:08:19;25.80;;;19.55;;
52508;SDS011;38420;53.150;6.370;2022-09-23T07:10:49;23.58;;;18.45;;
52508;SDS011;38420;53.150;6.370;2022-09-23T07:13:19;22.85;;;18.33;;
52508;SDS011;38420;53.150;6.370;2022-09-23T07:15:51;23.48;;;19.83;;
52508;SDS011;38420;53.150;6.370;2022-09-23T07:18:18;22.70;;;18.75;;
52508;SDS011;38420;53.150;6.370;2022-09-23T07:20:46;24.98;;;19.15;;
52508;SDS011;38420;53.150;6.370;2022-09-23T07:23:12;24.48;;;20.00;;
52508;SDS011;38420;53.150;6.370;2022-09-23T07:25:38;25.13;;;19.35;;
52508;SDS011;38420;53.150;6.370;2022-09-23T07:28:03;21.02;;;18.42;;
52508;SDS011;38420;53.150;6.370;2022-09-23T07:30:29;21.98;;;19.15;;
52508;SDS011;38420;53.150;6.370;2022-09-23T07:32:55;24.85;;;18.80;;
52508;SDS011;38420;53.150;6.370;2022-09-23T07:35:21;21.70;;;18.10;;
52508;SDS011;38420;53.150;6.370;2022-09-23T07:37:46;26.45;;;19.63;;
52508;SDS011;38420;53.150;6.370;2022-09-23T07:40:14;21.67;;;17.88;;
52508;SDS011;38420;53.150;6.370;2022-09-23T07:42:40;25.98;;;18.25;;
52508;SDS011;38420;53.150;6.370;2022-09-23T07:45:06;26.55;;;18.55;;
52508;SDS011;38420;53.150;6.370;2022-09-23T07:47:33;22.30;;;17.90;;
52508;SDS011;38420;53.150;6.370;2022-09-23T07:49:59;20.77;;;16.60;;
52508;SDS011;38420;53.150;6.370;2022-09-23T07:52:24;20.98;;;16.90;;
52508;SDS011;38420;53.150;6.370;2022-09-23T07:54:50;19.58;;;16.23;;
52508;SDS011;38420;53.150;6.370;2022-09-23T07:57:16;18.80;;;16.45;;
52508;SDS011;38420;53.150;6.370;2022-09-23T07:59:42;18.65;;;15.68;;
52508;SDS011;38420;53.150;6.370;2022-09-23T08:02:08;21.85;;;14.45;;
52508;SDS011;38420;53.150;6.370;2022-09-23T08:04:37;19.48;;;14.93;;
52508;SDS011;38420;53.150;6.370;2022-09-23T08:07:04;19.33;;;15.93;;
52508;SDS011;38420;53.150;6.370;2022-09-23T08:09:34;18.38;;;15.68;;
52508;SDS011;38420;53.150;6.370;2022-09-23T08:12:06;19.70;;;15.63;;
52508;SDS011;38420;53.150;6.370;2022-09-23T08:14:32;20.92;;;15.30;;
52508;SDS011;38420;53.150;6.370;2022-09-23T08:16:58;19.25;;;15.50;;
52508;SDS011;38420;53.150;6.370;2022-09-23T08:19:24;19.00;;;16.00;;
52508;SDS011;38420;53.150;6.370;2022-09-23T08:21:49;19.30;;;15.05;;
52508;SDS011;38420;53.150;6.370;2022-09-23T08:24:17;17.67;;;14.55;;
52508;SDS011;38420;53.150;6.370;2022-09-23T08:26:44;17.83;;;14.35;;
52508;SDS011;38420;53.150;6.370;2022-09-23T08:29:11;17.85;;;14.18;;
52508;SDS011;38420;53.150;6.370;2022-09-23T08:31:37;18.67;;;15.48;;
52508;SDS011;38420;53.150;6.370;2022-09-23T08:34:03;21.50;;;14.85;;
52508;SDS011;38420;53.150;6.370;2022-09-23T08:36:29;19.70;;;14.32;;
52508;SDS011;38420;53.150;6.370;2022-09-23T08:38:55;22.48;;;14.85;;
52508;SDS011;38420;53.150;6.370;2022-09-23T08:47:08;17.00;;;13.18;;
52508;SDS011;38420;53.150;6.370;2022-09-23T08:49:49;18.42;;;14.75;;
52508;SDS011;38420;53.150;6.370;2022-09-23T08:52:28;18.08;;;12.82;;
52508;SDS011;38420;53.150;6.370;2022-09-23T08:55:00;18.00;;;13.50;;
52508;SDS011;38420;53.150;6.370;2022-09-23T09:00:05;16.90;;;12.80;;
52508;SDS011;38420;53.150;6.370;2022-09-23T09:02:31;17.90;;;12.38;;
52508;SDS011;38420;53.150;6.370;2022-09-23T09:05:00;16.33;;;13.05;;
52508;SDS011;38420;53.150;6.370;2022-09-23T09:07:31;14.05;;;12.20;;
52508;SDS011;38420;53.150;6.370;2022-09-23T09:10:18;15.82;;;13.00;;
52508;SDS011;38420;53.150;6.370;2022-09-23T09:13:04;14.23;;;11.55;;
52508;SDS011;38420;53.150;6.370;2022-09-23T09:15:36;15.73;;;12.23;;
52508;SDS011;38420;53.150;6.370;2022-09-23T09:18:16;16.90;;;13.18;;
52508;SDS011;38420;53.150;6.370;2022-09-23T09:23:27;15.07;;;12.18;;
52508;SDS011;38420;53.150;6.370;2022-09-23T09:28:40;15.93;;;11.70;;
52508;SDS011;38420;53.150;6.370;2022-09-23T09:33:59;15.15;;;11.88;;
52508;SDS011;38420;53.150;6.370;2022-09-23T09:36:47;15.07;;;11.95;;
52508;SDS011;38420;53.150;6.370;2022-09-23T09:39:35;15.77;;;11.88;;
52508;SDS011;38420;53.150;6.370;2022-09-23T09:42:02;15.35;;;11.95;;
52508;SDS011;38420;53.150;6.370;2022-09-23T09:44:37;15.75;;;12.10;;
52508;SDS011;38420;53.150;6.370;2022-09-23T09:55:55;16.85;;;12.63;;
52508;SDS011;38420;53.150;6.370;2022-09-23T09:58:31;13.43;;;11.90;;
52508;SDS011;38420;53.150;6.370;2022-09-23T10:00:58;15.40;;;13.00;;
52508;SDS011;38420;53.150;6.370;2022-09-23T10:03:28;13.95;;;11.70;;
52508;SDS011;38420;53.150;6.370;2022-09-23T10:05:58;15.07;;;12.05;;
52508;SDS011;38420;53.150;6.370;2022-09-23T10:08:31;14.18;;;12.13;;
52508;SDS011;38420;53.150;6.370;2022-09-23T10:13:29;13.50;;;11.93;;
52508;SDS011;38420;53.150;6.370;2022-09-23T10:15:59;15.23;;;12.15;;
52508;SDS011;38420;53.150;6.370;2022-09-23T10:18:38;15.10;;;12.02;;
52508;SDS011;38420;53.150;6.370;2022-09-23T10:21:13;16.77;;;11.27;;
52508;SDS011;38420;53.150;6.370;2022-09-23T10:23:41;15.70;;;11.48;;
52508;SDS011;38420;53.150;6.370;2022-09-23T10:26:13;14.95;;;11.57;;
52508;SDS011;38420;53.150;6.370;2022-09-23T10:28:52;13.90;;;11.38;;
52508;SDS011;38420;53.150;6.370;2022-09-23T10:31:24;18.88;;;11.73;;
52508;SDS011;38420;53.150;6.370;2022-09-23T10:33:56;19.02;;;12.93;;
52508;SDS011;38420;53.150;6.370;2022-09-23T10:36:26;17.65;;;12.15;;
52508;SDS011;38420;53.150;6.370;2022-09-23T10:38:57;16.02;;;12.63;;
52508;SDS011;38420;53.150;6.370;2022-09-23T10:44:37;15.30;;;12.15;;
52508;SDS011;38420;53.150;6.370;2022-09-23T10:47:48;16.63;;;11.60;;
52508;SDS011;38420;53.150;6.370;2022-09-23T10:51:06;14.75;;;11.60;;
52508;SDS011;38420;53.150;6.370;2022-09-23T11:01:58;18.45;;;13.35;;
52508;SDS011;38420;53.150;6.370;2022-09-23T11:07:33;16.58;;;12.50;;
52508;SDS011;38420;53.150;6.370;2022-09-23T11:13:13;17.48;;;12.63;;
52508;SDS011;38420;53.150;6.370;2022-09-23T11:15:53;15.73;;;12.73;;
52508;SDS011;38420;53.150;6.370;2022-09-23T11:18:46;20.52;;;12.48;;
52508;SDS011;38420;53.150;6.370;2022-09-23T11:24:28;16.47;;;13.77;;
52508;SDS011;38420;53.150;6.370;2022-09-23T11:30:18;15.90;;;13.25;;
52508;SDS011;38420;53.150;6.370;2022-09-23T11:35:33;17.42;;;13.07;;
52508;SDS011;38420;53.150;6.370;2022-09-23T11:40:35;18.48;;;14.18;;
52508;SDS011;38420;53.150;6.370;2022-09-23T11:43:15;16.48;;;13.13;;
52508;SDS011;38420;53.150;6.370;2022-09-23T11:45:57;18.17;;;13.93;;
52508;SDS011;38420;53.150;6.370;2022-09-23T11:51:03;21.48;;;13.35;;
52508;SDS011;38420;53.150;6.370;2022-09-23T11:56:17;18.27;;;14.95;;
52508;SDS011;38420;53.150;6.370;2022-09-23T12:01:50;19.15;;;16.27;;
52508;SDS011;38420;53.150;6.370;2022-09-23T12:17:53;21.05;;;15.70;;
52508;SDS011;38420;53.150;6.370;2022-09-23T12:25:55;22.75;;;16.95;;
52508;SDS011;38420;53.150;6.370;2022-09-23T12:28:35;21.77;;;16.73;;
52508;SDS011;38420;53.150;6.370;2022-09-23T12:31:07;20.23;;;16.42;;
52508;SDS011;38420;53.150;6.370;2022-09-23T12:33:47;23.42;;;16.60;;
52508;SDS011;38420;53.150;6.370;2022-09-23T12:36:15;21.98;;;16.67;;
52508;SDS011;38420;53.150;6.370;2022-09-23T12:38:59;23.00;;;17.13;;
52508;SDS011;38420;53.150;6.370;2022-09-23T12:41:27;23.42;;;17.67;;
52508;SDS011;38420;53.150;6.370;2022-09-23T12:49:49;22.52;;;17.58;;
52508;SDS011;38420;53.150;6.370;2022-09-23T12:54:48;22.83;;;17.77;;
52508;SDS011;38420;53.150;6.370;2022-09-23T13:02:38;22.38;;;18.00;;
52508;SDS011;38420;53.150;6.370;2022-09-23T13:05:08;23.27;;;19.25;;
52508;SDS011;38420;53.150;6.370;2022-09-23T13:08:07;23.58;;;18.85;;
52508;SDS011;38420;53.150;6.370;2022-09-23T13:10:51;24.27;;;19.38;;
52508;SDS011;38420;53.150;6.370;2022-09-23T13:13:26;27.10;;;20.50;;
52508;SDS011;38420;53.150;6.370;2022-09-23T13:16:13;26.88;;;19.98;;
52508;SDS011;38420;53.150;6.370;2022-09-23T13:21:15;27.17;;;19.77;;
52508;SDS011;38420;53.150;6.370;2022-09-23T13:24:33;23.50;;;19.42;;
52508;SDS011;38420;53.150;6.370;2022-09-23T13:31:51;26.80;;;19.02;;
52508;SDS011;38420;53.150;6.370;2022-09-23T13:34:19;25.67;;;18.50;;
52508;SDS011;38420;53.150;6.370;2022-09-23T13:36:48;23.80;;;19.05;;
52508;SDS011;38420;53.150;6.370;2022-09-23T13:39:15;27.33;;;20.80;;
52508;SDS011;38420;53.150;6.370;2022-09-23T13:41:46;25.23;;;19.63;;
52508;SDS011;38420;53.150;6.370;2022-09-23T13:44:15;26.83;;;20.90;;
52508;SDS011;38420;53.150;6.370;2022-09-23T13:46:49;23.70;;;18.85;;
52508;SDS011;38420;53.150;6.370;2022-09-23T13:49:21;25.13;;;19.27;;
52508;SDS011;38420;53.150;6.370;2022-09-23T13:51:51;28.27;;;20.73;;
52508;SDS011;38420;53.150;6.370;2022-09-23T13:54:51;29.13;;;21.33;;
52508;SDS011;38420;53.150;6.370;2022-09-23T14:00:17;30.27;;;20.38;;
52508;SDS011;38420;53.150;6.370;2022-09-23T14:02:48;29.38;;;22.17;;
52508;SDS011;38420;53.150;6.370;2022-09-23T14:05:23;27.02;;;20.98;;
52508;SDS011;38420;53.150;6.370;2022-09-23T14:07:51;25.55;;;21.10;;
52508;SDS011;38420;53.150;6.370;2022-09-23T14:10:19;27.63;;;20.30;;
52508;SDS011;38420;53.150;6.370;2022-09-23T14:12:47;23.85;;;20.15;;
52508;SDS011;38420;53.150;6.370;2022-09-23T14:15:16;25.52;;;21.75;;
52508;SDS011;38420;53.150;6.370;2022-09-23T14:17:44;26.67;;;21.10;;
52508;SDS011;38420;53.150;6.370;2022-09-23T14:20:15;32.20;;;24.10;;
52508;SDS011;38420;53.150;6.370;2022-09-23T14:22:43;32.20;;;22.98;;
52508;SDS011;38420;53.150;6.370;2022-09-23T14:25:16;27.40;;;20.25;;
52508;SDS011;38420;53.150;6.370;2022-09-23T14:27:42;31.67;;;22.45;;
52508;SDS011;38420;53.150;6.370;2022-09-23T14:30:14;24.67;;;21.08;;
52508;SDS011;38420;53.150;6.370;2022-09-23T14:32:41;25.38;;;20.90;;
52508;SDS011;38420;53.150;6.370;2022-09-23T14:35:21;26.67;;;21.05;;
52508;SDS011;38420;53.150;6.370;2022-09-23T14:37:54;23.85;;;20.30;;
52508;SDS011;38420;53.150;6.370;2022-09-23T14:40:53;28.63;;;22.30;;
52508;SDS011;38420;53.150;6.370;2022-09-23T14:43:39;28.15;;;21.08;;
52508;SDS011;38420;53.150;6.370;2022-09-23T14:46:22;25.92;;;19.48;;
52508;SDS011;38420;53.150;6.370;2022-09-23T14:48:57;26.98;;;21.10;;
52508;SDS011;38420;53.150;6.370;2022-09-23T14:51:36;29.48;;;20.67;;
52508;SDS011;38420;53.150;6.370;2022-09-23T14:56:50;26.30;;;20.67;;
52508;SDS011;38420;53.150;6.370;2022-09-23T14:59:23;29.00;;;22.55;;
52508;SDS011;38420;53.150;6.370;2022-09-23T15:01:55;28.00;;;21.30;;
52508;SDS011;38420;53.150;6.370;2022-09-23T15:06:51;28.02;;;22.80;;
52508;SDS011;38420;53.150;6.370;2022-09-23T15:09:26;33.03;;;22.70;;
52508;SDS011;38420;53.150;6.370;2022-09-23T15:11:58;29.77;;;21.40;;
52508;SDS011;38420;53.150;6.370;2022-09-23T15:14:26;31.30;;;22.30;;
52508;SDS011;38420;53.150;6.370;2022-09-23T15:17:02;30.10;;;22.48;;
52508;SDS011;38420;53.150;6.370;2022-09-23T15:19:30;27.83;;;21.20;;
52508;SDS011;38420;53.150;6.370;2022-09-23T15:21:58;28.85;;;22.65;;
52508;SDS011;38420;53.150;6.370;2022-09-23T15:29:46;28.73;;;22.55;;
52508;SDS011;38420;53.150;6.370;2022-09-23T15:32:13;32.05;;;24.05;;
52508;SDS011;38420;53.150;6.370;2022-09-23T15:34:39;29.77;;;22.85;;
52508;SDS011;38420;53.150;6.370;2022-09-23T15:37:04;28.13;;;22.15;;
52508;SDS011;38420;53.150;6.370;2022-09-23T15:39:34;28.33;;;21.70;;
52508;SDS011;38420;53.150;6.370;2022-09-23T15:41:59;26.55;;;20.50;;
52508;SDS011;38420;53.150;6.370;2022-09-23T15:44:25;28.33;;;22.52;;
52508;SDS011;38420;53.150;6.370;2022-09-23T15:46:53;27.08;;;21.83;;
52508;SDS011;38420;53.150;6.370;2022-09-23T15:49:26;26.48;;;21.08;;
52508;SDS011;38420;53.150;6.370;2022-09-23T15:51:58;29.80;;;20.50;;
52508;SDS011;38420;53.150;6.370;2022-09-23T15:54:24;24.45;;;19.33;;
52508;SDS011;38420;53.150;6.370;2022-09-23T15:56:51;25.13;;;20.20;;
52508;SDS011;38420;53.150;6.370;2022-09-23T15:59:17;27.80;;;19.75;;
52508;SDS011;38420;53.150;6.370;2022-09-23T16:01:43;25.25;;;20.88;;
52508;SDS011;38420;53.150;6.370;2022-09-23T16:04:10;28.58;;;20.45;;
52508;SDS011;38420;53.150;6.370;2022-09-23T16:06:37;25.80;;;19.70;;
52508;SDS011;38420;53.150;6.370;2022-09-23T16:09:03;29.00;;;20.92;;
52508;SDS011;38420;53.150;6.370;2022-09-23T16:11:29;24.60;;;20.33;;
52508;SDS011;38420;53.150;6.370;2022-09-23T16:13:55;26.83;;;19.90;;
52508;SDS011;38420;53.150;6.370;2022-09-23T16:16:22;21.02;;;18.40;;
52508;SDS011;38420;53.150;6.370;2022-09-23T16:18:48;26.35;;;20.63;;
52508;SDS011;38420;53.150;6.370;2022-09-23T16:21:15;27.48;;;20.52;;
52508;SDS011;38420;53.150;6.370;2022-09-23T16:23:44;24.67;;;19.77;;
52508;SDS011;38420;53.150;6.370;2022-09-23T16:26:18;23.52;;;18.63;;
52508;SDS011;38420;53.150;6.370;2022-09-23T16:28:45;22.95;;;19.38;;
52508;SDS011;38420;53.150;6.370;2022-09-23T16:31:12;26.42;;;21.20;;
52508;SDS011;38420;53.150;6.370;2022-09-23T16:33:39;26.25;;;20.23;;
52508;SDS011;38420;53.150;6.370;2022-09-23T16:36:20;24.75;;;19.60;;
52508;SDS011;38420;53.150;6.370;2022-09-23T16:38:51;29.98;;;19.88;;
52508;SDS011;38420;53.150;6.370;2022-09-23T16:41:20;24.80;;;20.45;;
52508;SDS011;38420;53.150;6.370;2022-09-23T16:43:47;26.25;;;19.23;;
52508;SDS011;38420;53.150;6.370;2022-09-23T16:46:14;28.45;;;20.50;;
52508;SDS011;38420;53.150;6.370;2022-09-23T16:48:41;25.42;;;19.17;;
52508;SDS011;38420;53.150;6.370;2022-09-23T16:51:07;24.67;;;19.52;;
52508;SDS011;38420;53.150;6.370;2022-09-23T16:53:44;24.13;;;17.77;;
52508;SDS011;38420;53.150;6.370;2022-09-23T16:56:13;23.05;;;19.33;;
52508;SDS011;38420;53.150;6.370;2022-09-23T16:58:41;25.23;;;19.58;;
52508;SDS011;38420;53.150;6.370;2022-09-23T17:01:18;26.75;;;18.98;;
52508;SDS011;38420;53.150;6.370;2022-09-23T17:04:06;27.88;;;18.85;;
52508;SDS011;38420;53.150;6.370;2022-09-23T17:06:34;22.10;;;17.73;;
52508;SDS011;38420;53.150;6.370;2022-09-23T17:09:01;22.40;;;17.92;;
52508;SDS011;38420;53.150;6.370;2022-09-23T17:11:27;24.83;;;18.23;;
52508;SDS011;38420;53.150;6.370;2022-09-23T17:13:53;25.75;;;18.48;;
52508;SDS011;38420;53.150;6.370;2022-09-23T17:16:20;22.15;;;18.90;;
52508;SDS011;38420;53.150;6.370;2022-09-23T17:18:51;22.90;;;17.83;;
52508;SDS011;38420;53.150;6.370;2022-09-23T17:21:19;20.50;;;16.42;;
52508;SDS011;38420;53.150;6.370;2022-09-23T17:23:46;20.45;;;16.60;;
52508;SDS011;38420;53.150;6.370;2022-09-23T17:26:12;22.65;;;17.58;;
52508;SDS011;38420;53.150;6.370;2022-09-23T17:28:39;21.75;;;16.92;;
52508;SDS011;38420;53.150;6.370;2022-09-23T17:31:05;26.75;;;17.60;;
52508;SDS011;38420;53.150;6.370;2022-09-23T17:33:32;23.58;;;17.15;;
52508;SDS011;38420;53.150;6.370;2022-09-23T17:36:04;22.08;;;17.75;;